createdAt,value
2022-12-25T00:01:18.864Z,24.30
2022-12-25T00:03:54.799Z,24.40
2022-12-25T00:06:30.264Z,24.40
2022-12-25T00:09:05.977Z,24.40
2022-12-25T00:11:42.503Z,24.30
2022-12-25T00:14:17.866Z,24.60
2022-12-25T00:16:55.421Z,24.80
2022-12-25T00:19:31.708Z,24.80
2022-12-25T00:22:07.757Z,24.80
2022-12-25T00:24:43.084Z,24.80
2022-12-25T00:27:18.733Z,24.80
2022-12-25T00:29:54.738Z,24.90
2022-12-25T00:32:32.798Z,25.10
2022-12-25T00:35:09.399Z,25.20
2022-12-25T00:37:44.972Z,25.30
2022-12-25T00:40:20.693Z,25.40
2022-12-25T00:53:25.468Z,25.30
2022-12-25T01:32:42.716Z,25.70
2022-12-25T01:35:20.801Z,25.60
2022-12-25T01:40:33.767Z,25.70
2022-12-25T01:43:12.704Z,25.70
2022-12-25T01:45:55.155Z,25.80
2022-12-25T01:48:34.986Z,25.90
2022-12-25T01:51:17.961Z,25.80
2022-12-25T01:53:54.641Z,25.70
2022-12-25T01:56:32.845Z,25.70
2022-12-25T01:59:09.423Z,25.80
2022-12-25T02:01:45.059Z,25.80
2022-12-25T02:04:26.435Z,25.90
2022-12-25T02:07:04.387Z,25.90
2022-12-25T02:09:41.290Z,25.80
2022-12-25T02:12:22.387Z,25.80
2022-12-25T02:15:05.339Z,25.90
2022-12-25T02:17:46.429Z,25.90
2022-12-25T02:20:44.702Z,25.90
2022-12-25T02:23:52.746Z,25.90
2022-12-25T02:26:42.065Z,25.90
2022-12-25T02:29:27.793Z,25.90
2022-12-25T02:32:09.969Z,25.80
2022-12-25T02:34:52.095Z,25.90
2022-12-25T02:37:35.752Z,25.90
2022-12-25T02:40:19.022Z,25.90
2022-12-25T02:43:17.201Z,25.70
2022-12-25T02:46:14.044Z,25.60
2022-12-25T02:49:08.981Z,25.70
2022-12-25T02:52:11.845Z,25.60
2022-12-25T02:55:06.716Z,25.70
2022-12-25T02:57:59.442Z,25.70
2022-12-25T03:00:52.079Z,25.70
2022-12-25T03:03:49.896Z,25.60
2022-12-25T03:06:46.589Z,25.70
2022-12-25T03:12:29.471Z,25.20
2022-12-25T03:15:20.779Z,25.30
2022-12-25T04:06:42.292Z,25.30
2022-12-25T04:09:33.739Z,25.30
2022-12-25T04:12:27.973Z,25.20
2022-12-25T04:15:34.502Z,25.20
2022-12-25T04:18:25.907Z,25.20
2022-12-25T04:21:17.529Z,25.20
2022-12-25T04:24:08.636Z,25.20
2022-12-25T04:27:00.574Z,25.20
2022-12-25T04:29:53.726Z,25.20
2022-12-25T04:32:45.149Z,25.20
2022-12-25T04:38:13.754Z,25.10
2022-12-25T04:40:49.891Z,25.00
2022-12-25T04:43:26.868Z,25.00
2022-12-25T04:46:05.625Z,25.00
2022-12-25T04:48:42.210Z,25.10
2022-12-25T04:51:21.973Z,25.00
2022-12-25T04:53:58.567Z,25.20
2022-12-25T04:56:38.547Z,25.10
2022-12-25T04:59:17.698Z,25.00
2022-12-25T05:01:55.102Z,25.10
2022-12-25T05:04:30.822Z,25.00
2022-12-25T05:07:06.315Z,25.10
2022-12-25T05:09:43.395Z,25.10
2022-12-25T05:12:19.611Z,25.10
2022-12-25T05:25:23.357Z,24.90
2022-12-25T05:27:59.269Z,24.70
2022-12-25T05:30:34.909Z,24.70
2022-12-25T05:33:12.366Z,24.60
2022-12-25T05:35:47.500Z,24.60
2022-12-25T05:38:22.764Z,24.60
2022-12-25T05:40:58.679Z,24.60
2022-12-25T05:43:34.781Z,24.60
2022-12-25T05:46:14.940Z,24.60
2022-12-25T05:48:52.297Z,24.60
2022-12-25T05:51:27.885Z,24.70
2022-12-25T05:54:03.401Z,24.80
2022-12-25T05:59:15.815Z,24.50
2022-12-25T06:01:52.042Z,24.60
2022-12-25T06:04:29.172Z,24.40
2022-12-25T06:07:04.775Z,24.50
2022-12-25T06:09:40.089Z,24.50
2022-12-25T06:12:15.732Z,24.60
2022-12-25T06:14:51.572Z,24.60
2022-12-25T06:17:29.081Z,24.50
2022-12-25T06:20:06.532Z,24.50
2022-12-25T06:22:41.901Z,24.40
2022-12-25T06:25:17.554Z,24.50
2022-12-25T06:27:53.179Z,24.50
2022-12-25T06:30:29.394Z,24.50
2022-12-25T06:33:05.166Z,24.50
2022-12-25T06:35:44.327Z,24.50
2022-12-25T06:38:20.248Z,24.50
2022-12-25T06:46:09.839Z,24.50
2022-12-25T06:48:49.906Z,24.40
2022-12-25T06:51:29.491Z,24.40
2022-12-25T06:54:06.985Z,24.30
2022-12-25T06:56:42.440Z,24.30
2022-12-25T06:59:17.997Z,24.20
2022-12-25T07:01:55.791Z,24.10
2022-12-25T07:04:35.207Z,24.00
2022-12-25T07:07:13.520Z,24.00
2022-12-25T07:09:49.029Z,24.00
2022-12-25T07:12:27.395Z,23.90
2022-12-25T07:15:02.511Z,23.90
2022-12-25T07:17:40.470Z,23.90
2022-12-25T07:20:16.116Z,23.90
2022-12-25T07:22:53.851Z,23.90
2022-12-25T07:25:33.600Z,23.90
2022-12-25T07:28:12.173Z,24.00
2022-12-25T07:30:47.646Z,24.00
2022-12-25T07:33:24.532Z,23.90
2022-12-25T07:36:00.485Z,24.00
2022-12-25T07:38:37.667Z,24.00
2022-12-25T07:41:14.946Z,23.90
2022-12-25T07:43:54.049Z,23.90
2022-12-25T07:46:29.977Z,23.90
2022-12-25T07:49:06.260Z,23.90
2022-12-25T07:51:42.366Z,23.80
2022-12-25T07:54:20.126Z,23.80
2022-12-25T07:56:57.086Z,23.90
2022-12-25T07:59:32.425Z,23.90
2022-12-25T08:02:08.236Z,23.90
2022-12-25T08:07:22.386Z,23.80
2022-12-25T08:09:59.641Z,23.80
2022-12-25T08:12:35.161Z,23.70
2022-12-25T08:15:11.563Z,23.70
2022-12-25T08:17:46.981Z,23.60
2022-12-25T08:20:23.245Z,23.60
2022-12-25T08:22:58.895Z,23.60
2022-12-25T08:25:37.111Z,23.60
2022-12-25T08:28:12.422Z,23.50
2022-12-25T08:30:47.762Z,23.50
2022-12-25T08:36:06.350Z,23.40
2022-12-25T08:38:42.295Z,23.50
2022-12-25T08:41:21.140Z,23.50
2022-12-25T08:43:56.407Z,23.50
2022-12-25T08:46:35.668Z,23.50
2022-12-25T08:49:10.938Z,23.50
2022-12-25T08:51:48.728Z,23.50
2022-12-25T08:54:24.333Z,23.50
2022-12-25T08:57:02.867Z,23.40
2022-12-25T08:59:38.253Z,23.50
2022-12-25T09:04:50.693Z,23.40
2022-12-25T09:15:17.767Z,23.30
2022-12-25T09:25:49.917Z,23.30
2022-12-25T09:44:22.667Z,23.30
2022-12-25T09:47:01.854Z,23.20
2022-12-25T09:49:44.520Z,23.40
2022-12-25T09:52:24.303Z,23.40
2022-12-25T09:55:05.392Z,23.30
2022-12-25T09:57:41.197Z,23.30
2022-12-25T10:00:23.764Z,23.40
2022-12-25T10:03:23.470Z,23.40
2022-12-25T10:06:17.949Z,23.40
2022-12-25T10:22:39.804Z,23.70
2022-12-25T10:25:21.540Z,23.50
2022-12-25T10:28:02.823Z,23.30
